createdAt,value
2022-08-31T00:04:31.814Z,20.63
2022-08-31T00:06:58.417Z,23.75
2022-08-31T00:09:25.034Z,22.40
2022-08-31T00:11:51.545Z,26.08
2022-08-31T00:14:18.210Z,28.48
2022-08-31T00:16:45.911Z,28.10
2022-08-31T00:19:15.130Z,26.38
2022-08-31T00:21:41.936Z,27.73
2022-08-31T00:24:11.522Z,30.38
2022-08-31T00:26:38.014Z,25.45
2022-08-31T00:29:05.135Z,22.05
2022-08-31T00:31:31.674Z,22.10
2022-08-31T00:33:58.617Z,21.60
2022-08-31T00:36:26.240Z,20.10
2022-08-31T00:38:54.442Z,19.88
2022-08-31T00:41:25.065Z,20.98
2022-08-31T00:43:57.089Z,21.55
2022-08-31T00:46:33.109Z,24.75
2022-08-31T00:49:22.091Z,21.75
2022-08-31T00:51:59.281Z,18.58
2022-08-31T00:54:34.598Z,17.95
2022-08-31T00:57:01.787Z,20.48
2022-08-31T00:59:28.847Z,20.52
2022-08-31T01:01:55.463Z,22.60
2022-08-31T01:04:22.427Z,24.02
2022-08-31T01:06:49.891Z,24.67
2022-08-31T01:09:17.036Z,29.48
2022-08-31T01:11:43.774Z,32.72
2022-08-31T01:14:11.000Z,29.90
2022-08-31T01:16:52.692Z,31.55
2022-08-31T01:19:42.144Z,31.70
2022-08-31T01:22:25.977Z,32.00
2022-08-31T01:24:54.843Z,33.67
2022-08-31T01:27:28.829Z,34.22
2022-08-31T01:29:59.657Z,36.50
2022-08-31T01:32:26.103Z,35.53
2022-08-31T01:34:52.746Z,35.42
2022-08-31T01:37:19.409Z,39.70
2022-08-31T01:39:56.519Z,45.33
2022-08-31T01:42:22.907Z,43.78
2022-08-31T01:44:59.635Z,47.10
2022-08-31T01:47:26.119Z,37.30
2022-08-31T01:49:52.533Z,42.00
2022-08-31T01:52:23.568Z,30.05
2022-08-31T01:54:54.213Z,27.52
2022-08-31T01:57:30.812Z,28.35
2022-08-31T02:00:04.409Z,34.10
2022-08-31T02:02:31.078Z,37.95
2022-08-31T02:04:58.967Z,42.10
2022-08-31T02:07:25.517Z,51.85
2022-08-31T02:09:53.546Z,41.55
2022-08-31T02:12:20.060Z,125.57
2022-08-31T02:14:46.501Z,155.32
2022-08-31T02:17:12.918Z,233.98
2022-08-31T02:19:39.340Z,337.33
2022-08-31T02:22:06.044Z,399.05
2022-08-31T02:24:32.670Z,242.82
2022-08-31T02:26:59.259Z,420.35
2022-08-31T02:29:25.803Z,371.10
2022-08-31T02:31:52.325Z,509.20
2022-08-31T02:34:19.309Z,543.00
2022-08-31T02:36:45.822Z,455.35
2022-08-31T02:39:13.681Z,388.77
2022-08-31T02:41:42.335Z,446.20
2022-08-31T02:44:08.803Z,292.58
2022-08-31T02:46:35.558Z,411.02
2022-08-31T02:49:02.631Z,469.85
2022-08-31T02:51:29.558Z,562.90
2022-08-31T02:53:56.078Z,380.13
2022-08-31T02:56:23.745Z,381.92
2022-08-31T02:58:54.795Z,355.25
2022-08-31T03:01:22.839Z,344.65
2022-08-31T03:03:50.000Z,287.35
2022-08-31T03:06:17.454Z,198.27
2022-08-31T03:08:43.942Z,170.02
2022-08-31T03:11:10.387Z,113.43
2022-08-31T03:13:38.101Z,198.85
2022-08-31T03:16:05.420Z,180.45
2022-08-31T03:18:32.863Z,187.27
2022-08-31T03:20:59.514Z,189.98
2022-08-31T03:23:26.291Z,185.88
2022-08-31T03:25:52.752Z,232.35
2022-08-31T03:28:19.330Z,135.77
2022-08-31T03:30:45.784Z,80.80
2022-08-31T03:33:12.693Z,70.65
2022-08-31T03:35:44.014Z,121.90
2022-08-31T03:38:12.731Z,77.85
2022-08-31T03:40:40.983Z,100.47
2022-08-31T03:43:11.628Z,90.63
2022-08-31T03:45:40.066Z,92.50
2022-08-31T03:48:11.986Z,95.80
2022-08-31T03:50:39.767Z,77.03
2022-08-31T03:53:07.486Z,62.17
2022-08-31T03:55:35.863Z,69.95
2022-08-31T03:58:02.331Z,72.10
2022-08-31T04:00:29.552Z,70.38
2022-08-31T04:02:59.618Z,67.25
2022-08-31T04:05:28.273Z,64.55
2022-08-31T04:07:55.761Z,47.67
2022-08-31T04:10:23.014Z,49.42
2022-08-31T04:12:50.388Z,51.28
2022-08-31T04:15:17.987Z,57.05
2022-08-31T04:17:47.593Z,61.20
2022-08-31T04:20:14.475Z,54.20
2022-08-31T04:22:41.058Z,53.95
2022-08-31T04:25:10.133Z,52.38
2022-08-31T04:27:38.124Z,55.17
2022-08-31T04:30:07.579Z,53.28
2022-08-31T04:32:35.196Z,50.80
2022-08-31T04:35:01.974Z,47.90
2022-08-31T04:37:29.499Z,53.42
2022-08-31T04:39:59.241Z,59.35
2022-08-31T04:42:26.194Z,51.85
2022-08-31T04:44:52.621Z,48.90
2022-08-31T04:47:20.344Z,50.13
2022-08-31T04:49:48.162Z,54.80
2022-08-31T04:52:14.660Z,49.53
2022-08-31T04:54:41.127Z,52.90
2022-08-31T04:57:07.568Z,50.50
2022-08-31T04:59:33.986Z,43.10
2022-08-31T05:02:00.493Z,47.83
2022-08-31T05:04:28.990Z,48.58
2022-08-31T05:06:55.487Z,51.70
2022-08-31T05:09:23.616Z,47.38
2022-08-31T05:11:52.379Z,53.00
2022-08-31T05:14:18.962Z,51.80
2022-08-31T05:16:45.863Z,51.80
2022-08-31T05:19:12.442Z,52.17
2022-08-31T05:21:41.353Z,51.00
2022-08-31T05:24:14.495Z,51.45
2022-08-31T05:26:44.434Z,49.70
2022-08-31T05:29:14.184Z,50.35
2022-08-31T05:31:41.624Z,52.15
2022-08-31T05:34:08.378Z,48.17
2022-08-31T05:36:35.438Z,49.92
2022-08-31T05:39:02.184Z,48.67
2022-08-31T05:41:29.878Z,48.03
2022-08-31T05:43:56.458Z,46.90
2022-08-31T05:46:23.502Z,49.38
2022-08-31T05:48:50.095Z,52.88
2022-08-31T05:51:18.156Z,48.58
2022-08-31T05:53:45.639Z,46.08
2022-08-31T05:56:15.806Z,46.55
2022-08-31T05:58:46.321Z,51.33
2022-08-31T06:01:30.409Z,48.97
2022-08-31T06:03:58.056Z,47.05
2022-08-31T06:06:24.859Z,47.85
2022-08-31T06:08:52.017Z,48.22
2022-08-31T06:11:22.133Z,51.65
2022-08-31T06:13:51.200Z,48.97
2022-08-31T06:16:18.281Z,53.75
2022-08-31T06:18:50.667Z,51.78
2022-08-31T06:21:33.391Z,49.17
2022-08-31T06:24:02.041Z,49.88
2022-08-31T06:26:30.378Z,49.30
2022-08-31T06:29:00.138Z,51.33
2022-08-31T06:31:31.009Z,49.03
2022-08-31T06:33:58.069Z,51.35
2022-08-31T06:36:26.788Z,45.53
2022-08-31T06:38:56.129Z,45.40
2022-08-31T06:41:27.118Z,49.45
2022-08-31T06:43:53.969Z,50.78
2022-08-31T06:46:21.745Z,50.42
2022-08-31T06:48:50.685Z,48.53
2022-08-31T06:51:17.934Z,42.55
2022-08-31T06:53:44.491Z,48.83
2022-08-31T06:56:20.792Z,52.35
2022-08-31T06:58:53.616Z,50.72
2022-08-31T07:01:32.584Z,49.10
2022-08-31T07:04:07.746Z,44.40
2022-08-31T07:06:37.958Z,40.72
2022-08-31T07:09:06.800Z,39.63
2022-08-31T07:11:44.491Z,39.58
2022-08-31T07:14:14.272Z,38.00
2022-08-31T07:16:42.250Z,38.33
2022-08-31T07:19:09.237Z,38.35
2022-08-31T07:21:41.342Z,37.25
2022-08-31T07:24:08.913Z,37.78
2022-08-31T07:26:40.027Z,38.10
2022-08-31T07:29:07.450Z,39.70
2022-08-31T07:31:44.772Z,38.50
2022-08-31T07:34:12.942Z,37.38
2022-08-31T07:36:58.902Z,42.97
2022-08-31T07:39:45.647Z,39.33
2022-08-31T07:42:16.007Z,40.95
2022-08-31T07:44:52.948Z,43.42
2022-08-31T07:47:20.533Z,43.97
2022-08-31T07:49:52.308Z,45.97
2022-08-31T07:52:30.078Z,43.58
2022-08-31T07:55:07.883Z,44.90
2022-08-31T07:57:44.226Z,44.67
2022-08-31T08:00:40.010Z,44.67
2022-08-31T08:03:13.126Z,42.78
2022-08-31T08:05:41.628Z,43.17
2022-08-31T08:08:13.871Z,43.33
2022-08-31T08:10:46.709Z,46.47
2022-08-31T08:13:20.111Z,46.22
2022-08-31T08:15:48.021Z,43.38
2022-08-31T08:18:14.631Z,45.05
2022-08-31T08:20:41.306Z,42.50
2022-08-31T08:23:14.044Z,43.70
2022-08-31T08:25:43.528Z,44.65
2022-08-31T08:28:37.964Z,45.70
2022-08-31T08:31:04.687Z,46.58
2022-08-31T08:33:33.512Z,50.03
2022-08-31T08:36:03.514Z,51.10
2022-08-31T08:38:31.486Z,49.63
2022-08-31T08:41:04.957Z,49.63
2022-08-31T08:43:34.951Z,49.37
2022-08-31T08:46:19.799Z,44.60
2022-08-31T08:48:55.505Z,43.15
2022-08-31T08:51:29.315Z,34.90
2022-08-31T08:54:02.976Z,37.88
2022-08-31T08:56:33.791Z,41.47
2022-08-31T08:59:00.796Z,40.15
2022-08-31T09:01:29.230Z,43.10
2022-08-31T09:04:17.150Z,42.03
2022-08-31T09:07:12.011Z,42.25
2022-08-31T09:10:00.781Z,30.67
2022-08-31T09:12:33.820Z,24.55
2022-08-31T09:15:36.193Z,24.52
2022-08-31T09:18:33.498Z,21.95
2022-08-31T09:21:06.292Z,21.08
2022-08-31T09:23:44.215Z,23.92
2022-08-31T09:26:16.151Z,21.42
2022-08-31T09:28:47.109Z,20.38
2022-08-31T09:31:37.404Z,19.20
2022-08-31T09:34:12.446Z,19.42
2022-08-31T09:36:43.400Z,21.77
2022-08-31T09:39:34.509Z,20.15
2022-08-31T09:42:14.811Z,18.13
2022-08-31T09:44:42.839Z,17.77
2022-08-31T09:47:43.658Z,16.58
2022-08-31T09:50:11.243Z,14.65
2022-08-31T09:52:58.484Z,12.25
2022-08-31T09:55:27.937Z,14.45
2022-08-31T09:57:55.993Z,14.27
2022-08-31T10:00:36.593Z,13.35
2022-08-31T10:03:25.952Z,14.70
2022-08-31T10:05:54.538Z,15.68
2022-08-31T10:08:46.180Z,15.63
2022-08-31T10:11:17.933Z,17.08
2022-08-31T10:13:57.044Z,22.15
2022-08-31T10:16:27.252Z,15.70
2022-08-31T10:19:06.228Z,19.15
2022-08-31T10:21:32.687Z,19.60
2022-08-31T10:24:28.243Z,15.45
2022-08-31T10:27:31.423Z,14.65
2022-08-31T10:30:11.441Z,12.18
2022-08-31T10:32:53.263Z,12.65
2022-08-31T10:35:26.393Z,13.02
2022-08-31T10:37:58.586Z,14.05
2022-08-31T10:40:35.060Z,14.60
2022-08-31T10:43:11.773Z,13.82
2022-08-31T10:45:43.102Z,15.80
2022-08-31T10:48:12.759Z,15.80
2022-08-31T10:51:14.180Z,16.25
2022-08-31T10:54:07.161Z,15.93
2022-08-31T10:57:05.459Z,17.80
2022-08-31T10:59:45.934Z,21.23
2022-08-31T11:02:28.158Z,20.02
2022-08-31T11:05:26.039Z,14.25
2022-08-31T11:08:01.680Z,11.48
2022-08-31T11:10:55.153Z,9.85
2022-08-31T11:13:31.216Z,11.38
2022-08-31T11:16:19.772Z,12.15
2022-08-31T11:19:12.637Z,7.55
2022-08-31T11:22:02.917Z,8.13
2022-08-31T11:24:56.658Z,7.55
2022-08-31T11:27:26.999Z,8.07
2022-08-31T11:30:02.624Z,7.70
2022-08-31T11:32:46.601Z,7.65
2022-08-31T11:35:15.525Z,8.75
2022-08-31T11:37:55.570Z,10.05
2022-08-31T11:40:44.008Z,7.55
2022-08-31T11:43:33.624Z,11.98
2022-08-31T11:46:26.951Z,9.05
2022-08-31T11:48:53.905Z,8.35
2022-08-31T11:51:40.990Z,6.85
2022-08-31T11:54:41.498Z,9.15
2022-08-31T11:57:15.723Z,7.88
2022-08-31T12:02:21.770Z,8.98
2022-08-31T12:05:03.058Z,8.55
2022-08-31T12:07:36.435Z,8.68
2022-08-31T12:10:15.701Z,8.38
2022-08-31T12:13:09.528Z,8.93
2022-08-31T12:16:01.943Z,8.25
2022-08-31T12:18:38.461Z,8.68
2022-08-31T12:21:31.064Z,8.13
2022-08-31T12:24:06.258Z,9.02
2022-08-31T12:27:00.447Z,7.75
2022-08-31T12:29:35.466Z,7.60
2022-08-31T12:32:21.520Z,7.65
2022-08-31T12:35:00.345Z,6.70
2022-08-31T12:37:36.026Z,6.90
2022-08-31T12:40:19.901Z,7.13
2022-08-31T12:42:55.100Z,7.30
2022-08-31T12:45:49.441Z,7.40
2022-08-31T12:48:27.027Z,7.68
2022-08-31T12:51:13.163Z,7.15
2022-08-31T12:53:58.194Z,7.00
2022-08-31T12:56:36.718Z,7.70
2022-08-31T12:59:12.238Z,7.72
2022-08-31T13:01:46.300Z,13.50
2022-08-31T13:04:16.036Z,9.10
2022-08-31T13:06:45.064Z,8.80
2022-08-31T13:09:33.077Z,10.02
2022-08-31T13:12:00.825Z,14.38
2022-08-31T13:14:40.058Z,12.00
2022-08-31T13:17:29.358Z,12.00
2022-08-31T13:19:59.254Z,10.43
2022-08-31T13:22:31.449Z,10.75
2022-08-31T13:25:13.322Z,10.55
2022-08-31T13:27:51.264Z,11.55
2022-08-31T13:30:21.190Z,9.50
2022-08-31T13:32:54.629Z,12.70
2022-08-31T13:35:26.026Z,12.13
2022-08-31T13:38:05.749Z,13.25
2022-08-31T13:40:37.390Z,14.82
2022-08-31T13:43:07.422Z,16.15
2022-08-31T13:45:40.002Z,14.70
2022-08-31T13:48:14.338Z,14.95
2022-08-31T13:53:43.075Z,14.15
2022-08-31T13:56:52.474Z,13.75
2022-08-31T13:59:32.901Z,16.20
2022-08-31T14:02:19.442Z,20.27
2022-08-31T14:04:57.436Z,18.60
2022-08-31T14:07:32.861Z,15.73
2022-08-31T14:10:07.933Z,16.02
2022-08-31T14:12:46.042Z,13.13
2022-08-31T14:15:17.383Z,14.95
2022-08-31T14:21:20.974Z,15.20
2022-08-31T14:24:03.223Z,16.25
2022-08-31T14:26:33.377Z,15.32
2022-08-31T14:29:10.003Z,16.63
2022-08-31T14:31:52.300Z,18.10
2022-08-31T14:34:25.264Z,17.20
2022-08-31T14:37:06.402Z,15.90
2022-08-31T14:39:38.784Z,14.45
2022-08-31T14:42:18.543Z,13.73
2022-08-31T14:44:53.649Z,13.63
2022-08-31T14:47:24.214Z,10.98
2022-08-31T14:49:51.622Z,11.35
2022-08-31T14:52:18.580Z,12.20
2022-08-31T14:54:46.044Z,12.05
2022-08-31T14:57:17.678Z,12.07
2022-08-31T14:59:46.704Z,15.10
2022-08-31T15:02:16.429Z,16.40
2022-08-31T15:04:45.529Z,15.55
2022-08-31T15:07:13.936Z,15.85
2022-08-31T15:09:42.223Z,14.15
2022-08-31T15:12:14.683Z,12.68
2022-08-31T15:14:43.084Z,11.45
2022-08-31T15:17:11.683Z,11.10
2022-08-31T15:19:46.038Z,21.00
2022-08-31T15:22:12.568Z,23.42
2022-08-31T15:24:46.376Z,10.73
2022-08-31T15:27:15.138Z,10.82
2022-08-31T15:29:43.428Z,7.93
2022-08-31T15:32:10.273Z,8.65
2022-08-31T15:34:38.195Z,8.60
2022-08-31T15:37:07.314Z,8.30
2022-08-31T15:39:48.796Z,12.15
2022-08-31T15:42:20.504Z,15.95
2022-08-31T15:44:56.015Z,14.25
2022-08-31T15:47:47.900Z,17.63
2022-08-31T15:50:19.281Z,15.10
2022-08-31T15:52:51.586Z,15.30
2022-08-31T15:55:23.336Z,15.10
2022-08-31T15:57:54.457Z,13.63
2022-08-31T16:00:26.068Z,14.07
2022-08-31T16:02:57.631Z,15.77
2022-08-31T16:05:28.303Z,18.20
2022-08-31T16:07:57.277Z,15.00
2022-08-31T16:10:24.526Z,16.42
2022-08-31T16:12:54.781Z,17.00
2022-08-31T16:15:24.648Z,19.63
2022-08-31T16:17:54.033Z,16.88
2022-08-31T16:20:20.742Z,13.13
2022-08-31T16:22:48.349Z,14.13
2022-08-31T16:25:16.311Z,13.43
2022-08-31T16:27:43.384Z,11.43
2022-08-31T16:30:11.833Z,13.30
2022-08-31T16:32:38.329Z,9.30
2022-08-31T16:35:05.672Z,9.43
2022-08-31T16:37:33.181Z,10.93
2022-08-31T16:40:00.129Z,12.30
2022-08-31T16:42:26.831Z,10.80
2022-08-31T16:44:53.363Z,11.13
2022-08-31T16:47:21.496Z,12.68
2022-08-31T16:49:48.378Z,11.43
2022-08-31T16:52:21.411Z,11.15
2022-08-31T16:54:51.004Z,12.60
2022-08-31T16:57:21.131Z,14.00
2022-08-31T16:59:48.718Z,10.73
2022-08-31T17:02:16.564Z,10.75
2022-08-31T17:04:53.398Z,10.75
2022-08-31T17:07:22.116Z,11.25
2022-08-31T17:09:49.027Z,10.98
2022-08-31T17:12:19.373Z,10.50
2022-08-31T17:14:48.340Z,11.38
2022-08-31T17:17:19.030Z,10.30
2022-08-31T17:19:46.842Z,10.98
2022-08-31T17:22:23.300Z,12.45
2022-08-31T17:24:56.371Z,13.02
2022-08-31T17:27:25.279Z,11.20
2022-08-31T17:29:55.700Z,12.55
2022-08-31T17:32:27.832Z,12.45
2022-08-31T17:34:55.686Z,11.35
2022-08-31T17:37:30.346Z,9.82
2022-08-31T17:39:58.947Z,10.30
2022-08-31T17:42:27.169Z,9.63
2022-08-31T17:44:55.513Z,10.77
2022-08-31T17:47:23.887Z,11.23
2022-08-31T17:49:52.472Z,10.65
2022-08-31T17:52:20.792Z,9.25
2022-08-31T17:54:48.443Z,10.60
2022-08-31T17:57:17.129Z,8.80
2022-08-31T17:59:49.253Z,9.18
2022-08-31T18:02:22.736Z,9.00
2022-08-31T18:04:49.353Z,10.07
2022-08-31T18:07:16.229Z,8.55
2022-08-31T18:09:45.516Z,8.43
2022-08-31T18:12:14.425Z,9.23
2022-08-31T18:14:41.607Z,8.32
2022-08-31T18:17:11.256Z,8.38
2022-08-31T18:19:38.285Z,8.27
2022-08-31T18:22:05.185Z,8.43
2022-08-31T18:24:35.348Z,7.82
2022-08-31T18:27:04.101Z,7.45
2022-08-31T18:29:33.981Z,7.75
2022-08-31T18:32:09.862Z,7.55
2022-08-31T18:34:40.107Z,6.78
2022-08-31T18:37:07.816Z,7.35
2022-08-31T18:39:53.142Z,7.18
2022-08-31T18:42:39.447Z,7.05
2022-08-31T18:45:18.163Z,6.40
2022-08-31T18:48:07.217Z,6.28
2022-08-31T18:50:36.980Z,6.90
2022-08-31T18:53:08.192Z,6.18
2022-08-31T18:55:41.472Z,7.35
2022-08-31T18:58:07.999Z,6.20
2022-08-31T19:00:34.849Z,6.43
2022-08-31T19:03:02.510Z,6.40
2022-08-31T19:05:29.745Z,6.90
2022-08-31T19:07:58.137Z,6.97
2022-08-31T19:10:25.657Z,6.82
2022-08-31T19:12:55.302Z,6.13
2022-08-31T19:15:25.586Z,7.22
2022-08-31T19:18:01.600Z,6.95
2022-08-31T19:20:29.328Z,7.03
2022-08-31T19:22:57.309Z,6.93
2022-08-31T19:25:27.068Z,6.82
2022-08-31T19:27:54.809Z,6.80
2022-08-31T19:30:27.284Z,6.97
2022-08-31T19:32:58.117Z,6.87
2022-08-31T19:35:27.376Z,7.38
2022-08-31T19:37:56.369Z,7.25
2022-08-31T19:40:35.552Z,7.78
2022-08-31T19:43:43.006Z,7.75
2022-08-31T19:45:49.019Z,7.95
2022-08-31T19:48:17.207Z,7.60
2022-08-31T19:50:44.152Z,7.40
2022-08-31T19:53:12.093Z,8.02
2022-08-31T19:55:50.085Z,8.85
2022-08-31T19:58:19.242Z,8.10
2022-08-31T20:00:48.245Z,8.07
2022-08-31T20:03:15.747Z,8.48
2022-08-31T20:05:43.502Z,7.93
2022-08-31T20:08:12.829Z,7.47
2022-08-31T20:10:44.567Z,7.57
2022-08-31T20:13:12.677Z,8.05
2022-08-31T20:15:44.455Z,8.57
2022-08-31T20:18:12.913Z,7.78
2022-08-31T20:20:45.889Z,7.80
2022-08-31T20:23:16.727Z,8.65
2022-08-31T20:25:45.487Z,8.18
2022-08-31T20:28:12.867Z,8.45
2022-08-31T20:30:41.233Z,8.50
2022-08-31T20:33:08.198Z,9.05
2022-08-31T20:35:38.675Z,8.45
2022-08-31T20:38:06.134Z,8.13
2022-08-31T20:40:33.403Z,8.98
2022-08-31T20:43:01.438Z,8.77
2022-08-31T20:45:28.006Z,9.77
2022-08-31T20:48:13.009Z,9.07
2022-08-31T20:50:42.707Z,9.07
2022-08-31T20:53:18.535Z,9.10
2022-08-31T20:56:07.944Z,9.70
2022-08-31T20:58:34.368Z,9.40
2022-08-31T21:01:07.309Z,9.52
2022-08-31T21:03:34.671Z,10.13
2022-08-31T21:06:02.913Z,9.68
2022-08-31T21:08:29.360Z,9.45
2022-08-31T21:10:55.791Z,9.85
2022-08-31T21:13:22.192Z,9.25
2022-08-31T21:15:48.645Z,9.52
2022-08-31T21:18:18.929Z,9.18
2022-08-31T21:20:46.226Z,9.95
2022-08-31T21:23:13.371Z,9.38
2022-08-31T21:25:45.628Z,8.68
2022-08-31T21:28:15.557Z,9.13
2022-08-31T21:30:42.060Z,9.18
2022-08-31T21:33:08.499Z,9.20
2022-08-31T21:35:35.705Z,9.55
2022-08-31T21:38:03.156Z,9.68
2022-08-31T21:40:31.012Z,9.50
2022-08-31T21:42:58.322Z,9.57
2022-08-31T21:45:25.207Z,9.35
2022-08-31T21:47:51.635Z,9.73
2022-08-31T21:50:18.186Z,9.65
2022-08-31T21:52:44.575Z,9.45
2022-08-31T21:55:13.561Z,9.07
2022-08-31T21:57:40.771Z,10.05
2022-08-31T22:00:13.675Z,9.85
2022-08-31T22:02:46.683Z,9.82
2022-08-31T22:05:13.871Z,10.13
2022-08-31T22:07:40.652Z,9.48
2022-08-31T22:10:07.614Z,9.63
2022-08-31T22:12:34.135Z,10.55
2022-08-31T22:15:05.213Z,10.70
2022-08-31T22:17:48.527Z,10.10
2022-08-31T22:20:19.881Z,10.60
2022-08-31T22:22:46.986Z,10.55
2022-08-31T22:25:13.715Z,10.70
2022-08-31T22:27:40.218Z,10.40
2022-08-31T22:30:07.374Z,10.57
2022-08-31T22:32:33.994Z,10.40
2022-08-31T22:35:00.598Z,9.98
2022-08-31T22:37:27.016Z,9.70
2022-08-31T22:39:55.183Z,10.48
2022-08-31T22:42:22.310Z,10.05
2022-08-31T22:44:48.700Z,9.85
2022-08-31T22:47:15.162Z,9.82
2022-08-31T22:49:41.549Z,9.55
2022-08-31T22:52:08.018Z,10.27
2022-08-31T22:54:35.195Z,10.98
2022-08-31T22:57:01.773Z,10.13
2022-08-31T22:59:30.503Z,9.93
2022-08-31T23:02:03.842Z,9.38
2022-08-31T23:04:33.190Z,10.20
2022-08-31T23:07:01.309Z,9.73
2022-08-31T23:09:30.882Z,9.57
2022-08-31T23:12:00.139Z,9.57
2022-08-31T23:14:27.622Z,9.40
2022-08-31T23:16:58.610Z,9.68
2022-08-31T23:19:30.807Z,8.93
2022-08-31T23:21:58.189Z,7.93
2022-08-31T23:24:28.563Z,8.13
2022-08-31T23:27:00.448Z,8.57
2022-08-31T23:29:30.933Z,9.50
2022-08-31T23:31:58.247Z,9.02
2022-08-31T23:34:24.736Z,7.50
2022-08-31T23:36:53.203Z,9.30
2022-08-31T23:39:23.431Z,8.43
2022-08-31T23:41:50.499Z,7.47
2022-08-31T23:44:20.417Z,8.05
2022-08-31T23:46:46.925Z,7.28
2022-08-31T23:49:16.860Z,7.97
2022-08-31T23:51:43.661Z,9.35
2022-08-31T23:54:12.393Z,8.30
2022-08-31T23:56:41.873Z,10.07
2022-08-31T23:59:11.847Z,11.55
